Time;durP1;ratioP1;P1;durP2;ratioP2;P2;SDS_P1;SDS_P2;PMS_P1;PMS_P2;Temp;Humidity;BMP_temperature;BMP_pressure;BME280_temperature;BME280_humidity;BME280_pressure;Samples;Min_cycle;Max_cycle;Signal;HPM_P1;HPM_P2
2022/01/20 00:00:32;;;;;;;;;;;3.20;96.80;;;;;;5044477;28;19909;-73
2022/01/20 00:03:01;;;;;;;;;;;3.20;96.90;;;;;;5044552;28;19913;-73
2022/01/20 00:27:20;;;;;;;;;;;3.00;98.00;;;;;;5044180;28;19931;-73
2022/01/20 00:32:30;;;;;;;;;;;2.90;97.90;;;;;;5045004;28;19909;-73
2022/01/20 00:37:28;;;;;;;;;;;2.90;98.20;;;;;;5044882;28;19909;-72
2022/01/20 00:39:54;;;;;;;;;;;2.90;98.10;;;;;;5043654;28;19909;-73
2022/01/20 00:42:19;;;;;;;;;;;2.90;98.30;;;;;;5044802;28;19924;-73
2022/01/20 00:44:45;;;;;;;;;;;2.90;98.50;;;;;;5043486;28;19981;-73
2022/01/20 00:47:11;;;;;;;;;;;2.90;98.40;;;;;;5044729;28;20197;-74
2022/01/20 00:49:37;;;;;;;;;;;2.80;98.50;;;;;;5044414;28;19909;-74
2022/01/20 00:52:03;;;;;;;;;;;2.80;98.50;;;;;;5044638;28;19936;-73
2022/01/20 00:54:29;;;;;;;;;;;2.70;98.70;;;;;;5059882;28;20254;-72
2022/01/20 00:56:55;;;;;;;;;;;2.70;98.50;;;;;;5044593;28;19909;-72
2022/01/20 00:59:21;;;;;;;;;;;2.70;98.80;;;;;;5043428;28;19909;-72
2022/01/20 01:01:47;;;;;;;;;;;2.70;98.70;;;;;;5044430;28;19948;-73
2022/01/20 01:04:12;;;;;;;;;;;2.70;98.80;;;;;;5044132;28;19976;-73
2022/01/20 01:06:58;;;;;;;;;;;2.70;98.90;;;;;;5044160;28;19970;-72
2022/01/20 01:09:24;;;;;;;;;;;2.70;99.00;;;;;;5043376;28;19909;-72
2022/01/20 01:11:51;;;;;;;;;;;2.70;99.10;;;;;;5044427;28;19943;-73
2022/01/20 01:14:19;;;;;;;;;;;2.80;99.00;;;;;;5043869;28;20250;-73
2022/01/20 01:24:39;;;;;;;;;;;2.80;99.00;;;;;;5043795;28;20119;-73
2022/01/20 01:27:05;;;;;;;;;;;2.80;99.00;;;;;;5043921;28;19989;-73
2022/01/20 01:32:17;;;;;;;;;;;2.90;99.00;;;;;;5042933;28;19948;-73
2022/01/20 01:34:49;;;;;;;;;;;2.80;98.90;;;;;;5043398;28;19909;-73
2022/01/20 01:37:36;;;;;;;;;;;2.90;98.70;;;;;;5043765;28;19909;-73
2022/01/20 01:40:05;;;;;;;;;;;2.90;99.00;;;;;;5043593;28;19909;-73
2022/01/20 01:42:38;;;;;;;;;;;2.90;99.00;;;;;;5042594;28;20259;-73
2022/01/20 01:45:07;;;;;;;;;;;2.90;99.10;;;;;;5041530;28;19948;-73
2022/01/20 01:47:33;;;;;;;;;;;2.90;99.00;;;;;;5043572;28;19976;-73
2022/01/20 01:49:58;;;;;;;;;;;2.90;98.90;;;;;;5043248;28;19917;-73
2022/01/20 01:52:24;;;;;;;;;;;2.90;98.70;;;;;;5043411;28;19912;-73
2022/01/20 01:54:50;;;;;;;;;;;2.90;98.70;;;;;;5043266;28;20156;-73
2022/01/20 01:57:15;;;;;;;;;;;3.00;98.60;;;;;;5042347;28;19954;-73
2022/01/20 01:59:41;;;;;;;;;;;3.00;98.60;;;;;;5042203;28;19909;-72
2022/01/20 02:02:07;;;;;;;;;;;2.90;98.60;;;;;;5042164;28;19917;-72
2022/01/20 02:04:33;;;;;;;;;;;2.90;98.80;;;;;;5043045;28;19909;-72
2022/01/20 02:20:38;;;;;;;;;;;2.80;99.30;;;;;;5041708;28;19955;-71
2022/01/20 02:23:03;;;;;;;;;;;2.90;99.30;;;;;;5041768;28;20219;-72
2022/01/20 02:25:31;;;;;;;;;;;2.90;99.40;;;;;;5042783;28;19976;-72
2022/01/20 02:27:59;;;;;;;;;;;2.90;99.50;;;;;;5043000;28;20147;-72
2022/01/20 02:30:26;;;;;;;;;;;2.90;99.40;;;;;;5041998;28;19909;-72
2022/01/20 02:33:00;;;;;;;;;;;2.90;99.50;;;;;;5041850;28;19937;-72
2022/01/20 02:35:27;;;;;;;;;;;2.80;99.50;;;;;;5042475;28;20176;-72
2022/01/20 02:38:01;;;;;;;;;;;2.90;99.40;;;;;;5042750;28;19909;-72
2022/01/20 02:45:36;;;;;;;;;;;2.90;99.50;;;;;;5042668;28;19932;-72
2022/01/20 02:48:02;;;;;;;;;;;2.90;99.40;;;;;;5042893;28;19909;-72
2022/01/20 02:50:27;;;;;;;;;;;3.00;99.40;;;;;;5042631;28;19975;-72
2022/01/20 02:52:53;;;;;;;;;;;3.00;99.40;;;;;;5042794;28;19972;-72
2022/01/20 02:55:19;;;;;;;;;;;2.90;99.30;;;;;;5042656;28;19916;-72
2022/01/20 02:57:44;;;;;;;;;;;2.90;99.40;;;;;;5043052;28;19909;-72
2022/01/20 03:00:11;;;;;;;;;;;2.80;99.50;;;;;;5042675;28;19936;-72
2022/01/20 03:02:38;;;;;;;;;;;2.80;99.70;;;;;;5041530;28;19913;-72
2022/01/20 03:05:04;;;;;;;;;;;2.80;99.30;;;;;;5041017;28;19909;-72
2022/01/20 03:07:30;;;;;;;;;;;2.80;99.40;;;;;;5058175;28;19917;-72
2022/01/20 03:09:55;;;;;;;;;;;2.80;99.40;;;;;;5042746;28;20118;-72
2022/01/20 03:12:21;;;;;;;;;;;2.80;99.50;;;;;;5042644;28;19909;-72
2022/01/20 03:14:46;;;;;;;;;;;2.80;99.40;;;;;;5042374;28;19976;-72
2022/01/20 03:17:14;;;;;;;;;;;2.80;99.50;;;;;;5041565;28;19916;-71
2022/01/20 03:19:39;;;;;;;;;;;2.80;99.50;;;;;;5041146;28;19909;-72
2022/01/20 03:22:05;;;;;;;;;;;2.80;99.70;;;;;;5042203;28;19913;-71
2022/01/20 03:24:31;;;;;;;;;;;2.80;99.70;;;;;;5043948;28;20258;-72
2022/01/20 03:26:57;;;;;;;;;;;2.70;99.90;;;;;;5046194;28;20222;-71
2022/01/20 03:29:22;;;;;;;;;;;2.80;99.70;;;;;;5046077;28;19909;-72
2022/01/20 03:31:48;;;;;;;;;;;2.80;99.70;;;;;;5046069;28;19909;-72
2022/01/20 03:34:13;;;;;;;;;;;2.80;99.80;;;;;;5044519;28;20155;-71
2022/01/20 03:36:39;;;;;;;;;;;2.80;99.90;;;;;;5046051;28;19909;-72
2022/01/20 03:39:05;;;;;;;;;;;2.80;99.60;;;;;;5044778;28;19909;-72
2022/01/20 03:41:31;;;;;;;;;;;2.70;99.60;;;;;;5046019;28;19921;-72
2022/01/20 03:43:56;;;;;;;;;;;2.70;99.70;;;;;;5045789;28;19941;-72
2022/01/20 03:46:23;;;;;;;;;;;2.70;99.60;;;;;;5045653;28;19976;-72
2022/01/20 03:48:50;;;;;;;;;;;2.70;99.70;;;;;;5045627;28;20081;-72
2022/01/20 03:51:21;;;;;;;;;;;2.70;99.70;;;;;;5045547;28;19916;-72
2022/01/20 03:53:51;;;;;;;;;;;2.70;99.80;;;;;;5044547;28;19945;-72
2022/01/20 03:56:17;;;;;;;;;;;2.70;99.80;;;;;;5044328;28;19967;-72
2022/01/20 03:58:43;;;;;;;;;;;2.70;99.90;;;;;;5045495;28;19984;-72
2022/01/20 04:01:09;;;;;;;;;;;2.70;99.80;;;;;;5045504;28;19912;-72
2022/01/20 04:03:35;;;;;;;;;;;2.70;99.90;;;;;;5045406;28;20093;-72
2022/01/20 04:06:01;;;;;;;;;;;2.70;99.90;;;;;;5044950;28;20071;-73
2022/01/20 04:08:31;;;;;;;;;;;2.70;99.80;;;;;;5045436;28;19986;-72
2022/01/20 04:10:58;;;;;;;;;;;2.70;99.50;;;;;;5045382;28;19916;-72
2022/01/20 04:13:28;;;;;;;;;;;2.70;99.60;;;;;;5044171;28;19909;-72
2022/01/20 04:15:54;;;;;;;;;;;2.70;99.50;;;;;;5044927;28;19909;-73
2022/01/20 04:18:24;;;;;;;;;;;2.70;99.60;;;;;;5044975;28;19913;-72
2022/01/20 04:20:50;;;;;;;;;;;2.70;99.70;;;;;;5044976;28;19936;-72
2022/01/20 04:23:16;;;;;;;;;;;2.70;99.70;;;;;;5044910;28;19920;-72
2022/01/20 04:25:41;;;;;;;;;;;2.70;99.70;;;;;;5044884;28;19980;-72
2022/01/20 04:28:07;;;;;;;;;;;2.80;99.70;;;;;;5045050;28;19913;-72
2022/01/20 04:30:33;;;;;;;;;;;2.70;99.70;;;;;;5044930;28;19909;-72
2022/01/20 04:32:59;;;;;;;;;;;2.80;99.60;;;;;;5044884;28;20254;-72
2022/01/20 04:35:24;;;;;;;;;;;2.70;99.70;;;;;;5044067;28;19915;-73
2022/01/20 04:37:52;;;;;;;;;;;2.70;99.90;;;;;;5045038;28;19940;-72
2022/01/20 04:40:19;;;;;;;;;;;2.80;99.80;;;;;;5044538;28;19921;-72
2022/01/20 04:42:47;;;;;;;;;;;2.80;99.90;;;;;;5043583;28;20234;-72
2022/01/20 04:45:18;;;;;;;;;;;2.80;99.90;;;;;;5044360;28;19917;-73
2022/01/20 04:48:42;;;;;;;;;;;2.80;99.90;;;;;;5043674;28;19916;-73
2022/01/20 04:58:46;;;;;;;;;;;2.90;99.80;;;;;;5044383;28;20191;-72
2022/01/20 05:01:12;;;;;;;;;;;2.80;99.80;;;;;;5044495;28;19913;-72
2022/01/20 05:03:37;;;;;;;;;;;2.80;99.90;;;;;;5044256;28;19909;-72
2022/01/20 05:06:03;;;;;;;;;;;2.80;99.90;;;;;;5043946;28;19955;-72
2022/01/20 05:08:30;;;;;;;;;;;2.80;99.90;;;;;;5044480;28;20223;-72
2022/01/20 05:11:00;;;;;;;;;;;2.80;99.90;;;;;;5044318;28;19909;-72
2022/01/20 05:13:33;;;;;;;;;;;2.90;99.90;;;;;;5044194;28;19909;-71
2022/01/20 05:15:59;;;;;;;;;;;2.90;99.90;;;;;;5043925;28;19980;-72
2022/01/20 05:18:24;;;;;;;;;;;2.90;99.90;;;;;;5042772;28;20166;-71
2022/01/20 05:20:51;;;;;;;;;;;2.90;99.70;;;;;;5043824;28;19913;-71
2022/01/20 05:23:17;;;;;;;;;;;3.00;99.60;;;;;;5043928;28;19913;-71
2022/01/20 05:25:43;;;;;;;;;;;3.00;99.60;;;;;;5042751;28;19932;-71
2022/01/20 05:28:08;;;;;;;;;;;3.00;99.50;;;;;;5044016;28;19909;-72
2022/01/20 05:30:34;;;;;;;;;;;3.00;99.30;;;;;;5043934;28;20204;-72
2022/01/20 05:33:00;;;;;;;;;;;2.90;99.40;;;;;;5043564;28;19909;-72
2022/01/20 05:35:27;;;;;;;;;;;3.00;99.40;;;;;;5042315;28;19947;-72
2022/01/20 05:37:53;;;;;;;;;;;3.00;99.40;;;;;;5040815;28;20226;-72
2022/01/20 05:40:18;;;;;;;;;;;3.00;99.20;;;;;;5041804;28;19909;-73
2022/01/20 05:42:44;;;;;;;;;;;3.00;99.20;;;;;;5042403;28;19913;-72
2022/01/20 05:45:12;;;;;;;;;;;3.00;99.00;;;;;;5042473;28;20015;-73
2022/01/20 05:47:43;;;;;;;;;;;3.00;98.80;;;;;;5041738;28;19976;-72
2022/01/20 05:50:16;;;;;;;;;;;3.00;99.10;;;;;;5043406;28;20200;-72
2022/01/20 05:52:42;;;;;;;;;;;3.10;99.00;;;;;;5042045;28;19959;-72
2022/01/20 05:55:09;;;;;;;;;;;3.10;99.00;;;;;;5043027;28;20003;-72
2022/01/20 05:57:36;;;;;;;;;;;3.00;99.00;;;;;;5042304;28;20200;-72
2022/01/20 06:00:06;;;;;;;;;;;3.10;99.10;;;;;;5043009;28;20116;-72
2022/01/20 06:05:32;;;;;;;;;;;3.00;99.20;;;;;;5042751;28;20428;-71
2022/01/20 06:07:58;;;;;;;;;;;3.00;99.20;;;;;;5043149;28;19909;-71
2022/01/20 06:10:23;;;;;;;;;;;3.00;99.00;;;;;;5041899;28;20149;-68
2022/01/20 06:12:49;;;;;;;;;;;3.00;99.00;;;;;;5041801;28;19909;-71
2022/01/20 06:15:15;;;;;;;;;;;3.10;99.00;;;;;;5041582;28;19985;-68
2022/01/20 06:17:41;;;;;;;;;;;3.00;98.90;;;;;;5042962;28;19932;-69
2022/01/20 06:20:07;;;;;;;;;;;3.10;98.70;;;;;;5043189;28;20011;-69
2022/01/20 06:22:33;;;;;;;;;;;3.10;98.60;;;;;;5043020;28;19987;-70
2022/01/20 06:24:59;;;;;;;;;;;3.00;98.60;;;;;;5042579;28;19918;-69
2022/01/20 06:27:24;;;;;;;;;;;2.90;98.40;;;;;;5042738;28;19909;-70
2022/01/20 06:29:50;;;;;;;;;;;2.90;98.50;;;;;;5042528;28;19909;-70
2022/01/20 06:32:16;;;;;;;;;;;2.80;98.70;;;;;;5041211;28;20108;-70
2022/01/20 06:34:41;;;;;;;;;;;2.70;98.80;;;;;;5042434;28;19916;-69
2022/01/20 06:37:07;;;;;;;;;;;2.60;98.90;;;;;;5042809;28;20081;-69
2022/01/20 06:39:33;;;;;;;;;;;2.50;98.90;;;;;;5042673;28;19909;-69
2022/01/20 06:41:59;;;;;;;;;;;2.50;98.90;;;;;;5042536;28;19950;-69
2022/01/20 06:44:25;;;;;;;;;;;2.50;99.10;;;;;;5042069;28;19909;-69
2022/01/20 06:46:51;;;;;;;;;;;2.50;98.80;;;;;;5020696;28;19918;-69
2022/01/20 06:49:18;;;;;;;;;;;2.50;98.90;;;;;;5023064;28;19921;-69
2022/01/20 06:51:46;;;;;;;;;;;2.50;98.70;;;;;;5039210;28;20029;-69
2022/01/20 06:54:12;;;;;;;;;;;2.60;98.60;;;;;;5041061;28;19909;-68
2022/01/20 06:56:38;;;;;;;;;;;2.50;98.40;;;;;;5025027;28;19967;-68
2022/01/20 06:59:04;;;;;;;;;;;2.60;98.40;;;;;;5045423;28;19910;-69
2022/01/20 07:01:30;;;;;;;;;;;2.50;98.40;;;;;;5049815;28;19921;-69
2022/01/20 07:03:55;;;;;;;;;;;2.50;98.60;;;;;;5047250;28;19920;-69
2022/01/20 07:06:21;;;;;;;;;;;2.50;98.60;;;;;;5046258;28;19975;-72
2022/01/20 07:08:47;;;;;;;;;;;2.50;98.60;;;;;;5046218;28;19909;-71
2022/01/20 07:11:13;;;;;;;;;;;2.50;98.70;;;;;;5045061;28;19932;-71
2022/01/20 07:13:39;;;;;;;;;;;2.50;98.70;;;;;;5044906;28;20004;-73
2022/01/20 07:16:04;;;;;;;;;;;2.60;98.60;;;;;;5060619;28;19917;-71
2022/01/20 07:18:31;;;;;;;;;;;2.60;98.60;;;;;;5046091;28;20035;-71
2022/01/20 07:20:56;;;;;;;;;;;2.60;98.90;;;;;;5045915;28;19948;-72
2022/01/20 07:23:22;;;;;;;;;;;2.60;98.50;;;;;;5045850;28;19913;-72
2022/01/20 07:25:48;;;;;;;;;;;2.60;98.50;;;;;;5061422;28;19916;-71
2022/01/20 07:28:16;;;;;;;;;;;2.60;98.70;;;;;;5061480;28;19912;-72
2022/01/20 07:30:41;;;;;;;;;;;2.60;98.60;;;;;;5044573;28;19924;-72
2022/01/20 07:33:08;;;;;;;;;;;2.70;98.50;;;;;;5045651;28;19909;-71
2022/01/20 07:35:35;;;;;;;;;;;2.70;98.50;;;;;;5045660;28;19908;-71
2022/01/20 07:38:00;;;;;;;;;;;2.70;98.20;;;;;;5044836;28;19944;-71
2022/01/20 07:40:26;;;;;;;;;;;2.80;98.30;;;;;;5045751;28;19910;-72
2022/01/20 07:42:52;;;;;;;;;;;2.70;98.20;;;;;;5045513;28;19913;-72
2022/01/20 07:45:18;;;;;;;;;;;2.80;98.10;;;;;;5045169;28;19991;-71
2022/01/20 07:47:43;;;;;;;;;;;2.80;98.00;;;;;;5044972;28;19932;-71
2022/01/20 07:50:10;;;;;;;;;;;2.80;97.90;;;;;;5044576;28;20345;-71
2022/01/20 07:52:35;;;;;;;;;;;2.80;97.90;;;;;;5027994;28;19916;-71
2022/01/20 07:55:01;;;;;;;;;;;2.80;97.60;;;;;;5045326;28;19909;-71
2022/01/20 07:57:27;;;;;;;;;;;2.90;97.60;;;;;;5045445;28;19916;-72
2022/01/20 07:59:52;;;;;;;;;;;2.90;97.50;;;;;;5044056;28;20108;-72
2022/01/20 08:02:18;;;;;;;;;;;2.90;97.40;;;;;;5045273;28;19988;-71
2022/01/20 08:04:44;;;;;;;;;;;2.90;97.60;;;;;;5045170;28;19913;-70
2022/01/20 08:07:09;;;;;;;;;;;2.90;97.20;;;;;;5045334;28;20231;-71
2022/01/20 08:09:35;;;;;;;;;;;2.90;97.20;;;;;;5044672;28;19909;-71
2022/01/20 08:12:01;;;;;;;;;;;3.00;96.90;;;;;;5044925;28;19928;-72
2022/01/20 08:14:28;;;;;;;;;;;3.00;96.70;;;;;;5044498;28;19918;-65
2022/01/20 08:16:54;;;;;;;;;;;3.10;96.80;;;;;;5045126;28;19955;-66
2022/01/20 08:19:19;;;;;;;;;;;3.20;96.50;;;;;;5045040;28;20143;-65
2022/01/20 08:21:45;;;;;;;;;;;3.10;96.20;;;;;;5044968;28;19920;-66
2022/01/20 08:24:10;;;;;;;;;;;3.10;96.30;;;;;;5044701;28;20070;-66
2022/01/20 08:26:36;;;;;;;;;;;3.10;96.30;;;;;;5043637;28;20204;-66
2022/01/20 08:29:02;;;;;;;;;;;3.10;96.30;;;;;;5044798;28;19915;-66
2022/01/20 08:31:29;;;;;;;;;;;3.20;96.30;;;;;;5044912;28;19909;-65
2022/01/20 08:33:55;;;;;;;;;;;3.20;96.40;;;;;;5044271;28;19991;-65
2022/01/20 08:36:21;;;;;;;;;;;3.20;96.30;;;;;;5058048;23;19921;-68
2022/01/20 08:38:46;;;;;;;;;;;3.20;96.30;;;;;;5016487;28;19920;-68
2022/01/20 08:41:12;;;;;;;;;;;3.20;96.30;;;;;;5024934;28;20274;-68
2022/01/20 08:43:41;;;;;;;;;;;3.30;96.30;;;;;;5024573;28;19913;-67
2022/01/20 08:46:07;;;;;;;;;;;3.30;96.20;;;;;;5024604;28;19910;-67
2022/01/20 08:48:37;;;;;;;;;;;3.40;96.40;;;;;;5001510;28;19910;-69
2022/01/20 08:51:04;;;;;;;;;;;3.40;96.10;;;;;;4984467;28;20201;-68
2022/01/20 08:53:31;;;;;;;;;;;3.40;96.10;;;;;;4984372;28;19957;-68
2022/01/20 08:55:59;;;;;;;;;;;3.40;96.00;;;;;;4985263;28;19918;-68
2022/01/20 08:58:25;;;;;;;;;;;3.40;96.00;;;;;;4985476;28;19910;-68
2022/01/20 09:00:51;;;;;;;;;;;3.30;96.10;;;;;;4985600;28;19942;-68
2022/01/20 09:03:16;;;;;;;;;;;3.40;96.40;;;;;;4985557;28;20201;-68
2022/01/20 09:05:42;;;;;;;;;;;3.40;96.40;;;;;;4984929;28;19910;-68
2022/01/20 09:08:09;;;;;;;;;;;3.40;96.00;;;;;;4985583;28;19910;-68
2022/01/20 09:10:39;;;;;;;;;;;3.50;96.00;;;;;;4985265;28;19910;-69
2022/01/20 09:15:50;;;;;;;;;;;3.50;95.90;;;;;;4984913;28;19917;-67
2022/01/20 09:18:18;;;;;;;;;;;3.50;95.60;;;;;;5015701;28;19937;-68
2022/01/20 09:20:43;;;;;;;;;;;3.50;95.70;;;;;;5023692;28;19960;-68
2022/01/20 09:23:09;;;;;;;;;;;3.40;95.80;;;;;;5022417;28;19913;-68
2022/01/20 09:25:35;;;;;;;;;;;3.50;95.90;;;;;;5023929;28;19924;-69
2022/01/20 09:28:01;;;;;;;;;;;3.50;95.80;;;;;;5024153;28;19976;-70
2022/01/20 09:30:27;;;;;;;;;;;3.50;95.80;;;;;;5024212;28;19915;-68
2022/01/20 09:33:28;;;;;;;;;;;3.50;95.40;;;;;;5023695;28;19910;-69
2022/01/20 09:35:45;;;;;;;;;;;3.60;95.10;;;;;;5021433;28;19921;-68
2022/01/20 09:38:11;;;;;;;;;;;3.60;95.10;;;;;;5023960;28;20175;-68
2022/01/20 09:40:37;;;;;;;;;;;3.60;95.00;;;;;;5023946;28;19993;-68
2022/01/20 09:43:04;;;;;;;;;;;3.70;95.20;;;;;;5024149;28;19997;-64
2022/01/20 09:45:30;;;;;;;;;;;3.90;95.60;;;;;;5023578;28;19910;-73
2022/01/20 09:47:56;;;;;;;;;;;4.40;96.30;;;;;;5021783;28;19909;-67
2022/01/20 09:50:23;;;;;;;;;;;4.50;94.10;;;;;;5023646;28;19909;-67
2022/01/20 09:52:49;;;;;;;;;;;4.30;93.70;;;;;;5023340;28;20115;-67
2022/01/20 09:55:15;;;;;;;;;;;4.20;93.90;;;;;;5023293;28;19916;-66
2022/01/20 09:57:41;;;;;;;;;;;4.10;94.20;;;;;;5023564;28;19909;-66
2022/01/20 10:00:09;;;;;;;;;;;4.10;94.00;;;;;;5022437;28;19920;-66
2022/01/20 10:02:35;;;;;;;;;;;4.00;94.30;;;;;;5023503;28;19909;-66
2022/01/20 10:05:01;;;;;;;;;;;4.00;94.30;;;;;;5023235;28;19909;-67
2022/01/20 10:07:32;;;;;;;;;;;3.90;94.30;;;;;;5023124;28;19910;-66
2022/01/20 10:09:57;;;;;;;;;;;3.90;94.40;;;;;;5023357;28;19909;-66
2022/01/20 10:12:28;;;;;;;;;;;4.00;94.70;;;;;;5023363;28;19910;-67
2022/01/20 10:14:57;;;;;;;;;;;4.00;94.90;;;;;;5023089;28;19947;-67
2022/01/20 10:17:29;;;;;;;;;;;4.00;95.00;;;;;;5013683;28;19981;-67
2022/01/20 10:20:06;;;;;;;;;;;4.00;94.70;;;;;;5003449;28;19941;-67
2022/01/20 10:22:33;;;;;;;;;;;3.90;94.60;;;;;;5003589;28;19941;-67
2022/01/20 10:25:08;;;;;;;;;;;3.80;95.40;;;;;;5003313;28;19948;-67
2022/01/20 10:27:46;;;;;;;;;;;3.80;95.20;;;;;;5002486;28;19910;-67
2022/01/20 10:30:12;;;;;;;;;;;3.80;95.70;;;;;;5003581;28;19914;-66
2022/01/20 10:32:42;;;;;;;;;;;3.50;94.60;;;;;;5002598;28;20102;-67
2022/01/20 10:35:09;;;;;;;;;;;2.80;94.40;;;;;;5002099;28;20231;-67
2022/01/20 10:37:34;;;;;;;;;;;2.40;95.90;;;;;;5003289;28;20224;-67
2022/01/20 10:40:06;;;;;;;;;;;2.20;96.40;;;;;;5002150;28;19914;-67
2022/01/20 10:42:38;;;;;;;;;;;2.10;96.30;;;;;;5003047;28;19913;-66
2022/01/20 10:45:04;;;;;;;;;;;1.90;97.20;;;;;;5003333;28;19948;-67
2022/01/20 10:47:33;;;;;;;;;;;1.80;97.60;;;;;;5001475;28;19910;-66
2022/01/20 10:50:12;;;;;;;;;;;1.80;97.80;;;;;;5003327;28;20117;-67
2022/01/20 10:52:40;;;;;;;;;;;1.90;97.70;;;;;;5001896;28;19910;-66
2022/01/20 10:55:16;;;;;;;;;;;1.80;97.40;;;;;;5002822;28;19945;-67
2022/01/20 10:57:42;;;;;;;;;;;1.70;97.30;;;;;;5002347;28;19910;-66
2022/01/20 11:00:10;;;;;;;;;;;1.60;97.70;;;;;;5002989;28;19914;-67
2022/01/20 11:02:35;;;;;;;;;;;1.50;97.80;;;;;;5003286;28;19909;-66
2022/01/20 11:05:01;;;;;;;;;;;1.50;97.30;;;;;;5003025;28;19909;-67
2022/01/20 11:07:28;;;;;;;;;;;1.60;97.70;;;;;;4996566;28;19917;-66
2022/01/20 11:10:02;;;;;;;;;;;1.60;97.80;;;;;;4999681;28;20209;-66
2022/01/20 11:12:28;;;;;;;;;;;1.50;96.90;;;;;;5000454;28;19910;-67
2022/01/20 11:14:54;;;;;;;;;;;1.60;97.30;;;;;;5001724;28;20086;-66
2022/01/20 11:17:24;;;;;;;;;;;1.60;96.90;;;;;;5001603;28;19933;-66
2022/01/20 11:19:52;;;;;;;;;;;1.60;97.40;;;;;;5001162;28;20475;-67
2022/01/20 11:22:19;;;;;;;;;;;1.80;97.00;;;;;;5002646;28;19986;-67
2022/01/20 11:24:45;;;;;;;;;;;1.80;96.70;;;;;;5002786;28;19910;-66
2022/01/20 11:27:12;;;;;;;;;;;1.90;96.40;;;;;;4985203;28;19916;-67
2022/01/20 11:29:48;;;;;;;;;;;1.90;96.50;;;;;;5002599;28;19953;-67
2022/01/20 11:32:25;;;;;;;;;;;1.90;96.70;;;;;;5002109;28;19992;-66
2022/01/20 11:35:09;;;;;;;;;;;2.00;95.80;;;;;;5002671;28;19955;-67
2022/01/20 11:37:54;;;;;;;;;;;2.10;95.80;;;;;;5002542;28;19913;-66
2022/01/20 11:40:21;;;;;;;;;;;2.30;96.10;;;;;;5002769;28;19914;-67
2022/01/20 11:43:05;;;;;;;;;;;2.60;95.80;;;;;;5003025;28;19972;-67
2022/01/20 11:45:35;;;;;;;;;;;2.90;95.00;;;;;;5004112;28;20101;-67
2022/01/20 11:48:17;;;;;;;;;;;3.00;94.70;;;;;;5005444;28;19909;-67
2022/01/20 11:50:43;;;;;;;;;;;3.20;94.70;;;;;;4988872;28;20090;-67
2022/01/20 11:53:16;;;;;;;;;;;3.70;94.10;;;;;;5006011;28;19917;-67
2022/01/20 11:55:47;;;;;;;;;;;4.00;91.80;;;;;;5005957;28;19909;-67
2022/01/20 11:58:14;;;;;;;;;;;4.20;91.80;;;;;;5006263;28;19910;-67
2022/01/20 12:00:41;;;;;;;;;;;4.30;91.30;;;;;;5006081;28;19913;-67
2022/01/20 12:03:14;;;;;;;;;;;4.60;90.40;;;;;;5006030;28;19916;-67
2022/01/20 12:05:39;;;;;;;;;;;4.30;90.90;;;;;;5005714;28;19918;-67
2022/01/20 12:08:10;;;;;;;;;;;4.10;91.60;;;;;;5004616;28;20114;-67
2022/01/20 12:10:36;;;;;;;;;;;4.00;91.60;;;;;;5005999;28;19910;-67
2022/01/20 12:13:10;;;;;;;;;;;4.00;91.90;;;;;;5005059;28;19917;-67
2022/01/20 12:15:49;;;;;;;;;;;4.00;92.00;;;;;;5005416;28;19941;-67
2022/01/20 12:18:14;;;;;;;;;;;4.00;91.30;;;;;;5005102;28;19914;-66
2022/01/20 12:20:40;;;;;;;;;;;3.90;91.30;;;;;;5005636;28;19914;-67
2022/01/20 12:23:06;;;;;;;;;;;4.10;90.90;;;;;;5005400;28;19981;-68
2022/01/20 12:25:33;;;;;;;;;;;5.00;89.00;;;;;;5005353;28;19940;-67
2022/01/20 12:28:07;;;;;;;;;;;5.90;84.70;;;;;;4988550;28;19913;-67
2022/01/20 12:30:33;;;;;;;;;;;7.20;79.70;;;;;;5005559;28;19925;-67
2022/01/20 12:33:08;;;;;;;;;;;8.20;71.60;;;;;;5005511;28;19910;-67
2022/01/20 12:35:40;;;;;;;;;;;8.90;66.00;;;;;;5005197;28;19913;-67
2022/01/20 12:38:27;;;;;;;;;;;9.70;62.40;;;;;;5005243;28;19917;-67
2022/01/20 12:41:05;;;;;;;;;;;10.10;60.00;;;;;;5004352;28;19921;-67
2022/01/20 12:43:56;;;;;;;;;;;11.00;58.50;;;;;;5005489;28;20300;-68
2022/01/20 12:46:26;;;;;;;;;;;11.60;54.30;;;;;;5005134;28;20282;-66
2022/01/20 12:49:09;;;;;;;;;;;11.10;55.80;;;;;;5018375;28;20132;-67
2022/01/20 12:51:42;;;;;;;;;;;10.10;57.30;;;;;;5024672;28;20246;-67
2022/01/20 12:54:10;;;;;;;;;;;9.40;59.10;;;;;;5024685;28;19916;-66
2022/01/20 12:56:37;;;;;;;;;;;9.40;59.70;;;;;;5024466;28;19909;-67
2022/01/20 12:59:03;;;;;;;;;;;10.10;58.20;;;;;;5024783;28;19917;-67
2022/01/20 13:01:39;;;;;;;;;;;10.40;54.00;;;;;;5023674;28;20242;-67
2022/01/20 13:04:05;;;;;;;;;;;9.50;56.80;;;;;;5025332;28;20108;-68
2022/01/20 13:06:32;;;;;;;;;;;8.90;59.60;;;;;;5024347;28;19944;-68
2022/01/20 13:08:59;;;;;;;;;;;8.20;62.40;;;;;;4991151;28;20121;-68
2022/01/20 13:11:43;;;;;;;;;;;8.40;61.60;;;;;;4985368;28;19910;-67
2022/01/20 13:14:10;;;;;;;;;;;9.80;57.10;;;;;;4985211;28;19933;-68
2022/01/20 13:16:36;;;;;;;;;;;10.90;53.30;;;;;;4983982;28;19917;-68
2022/01/20 13:19:04;;;;;;;;;;;11.50;53.00;;;;;;5001041;28;19913;-68
2022/01/20 13:21:40;;;;;;;;;;;10.50;54.60;;;;;;5004442;28;20116;-68
2022/01/20 13:24:07;;;;;;;;;;;9.80;57.90;;;;;;5003558;28;19910;-68
2022/01/20 13:26:44;;;;;;;;;;;8.70;59.30;;;;;;5002941;28;19910;-68
2022/01/20 13:29:09;;;;;;;;;;;7.70;64.20;;;;;;5004550;28;19949;-68
2022/01/20 13:31:35;;;;;;;;;;;7.20;63.40;;;;;;5004521;28;20144;-68
2022/01/20 13:34:11;;;;;;;;;;;6.50;63.90;;;;;;5003920;28;20094;-66
2022/01/20 13:36:45;;;;;;;;;;;5.90;64.70;;;;;;5003732;28;19929;-67
2022/01/20 13:39:11;;;;;;;;;;;5.30;66.40;;;;;;5004196;28;19928;-68
2022/01/20 13:41:37;;;;;;;;;;;4.80;69.50;;;;;;5003125;28;19918;-69
2022/01/20 13:47:02;;;;;;;;;;;4.20;75.20;;;;;;5004017;28;19916;-68
2022/01/20 13:49:28;;;;;;;;;;;3.80;78.10;;;;;;5021014;28;19916;-69
2022/01/20 13:52:02;;;;;;;;;;;3.50;81.50;;;;;;5010981;28;19949;-68
2022/01/20 13:54:37;;;;;;;;;;;3.30;84.20;;;;;;5002740;28;19914;-68
2022/01/20 13:57:03;;;;;;;;;;;3.30;85.50;;;;;;5002782;28;19909;-68
2022/01/20 13:59:29;;;;;;;;;;;3.20;86.00;;;;;;5003105;28;19945;-68
2022/01/20 14:01:55;;;;;;;;;;;3.20;86.90;;;;;;5003445;28;19956;-68
2022/01/20 14:04:20;;;;;;;;;;;3.30;87.40;;;;;;4986119;28;19932;-68
2022/01/20 14:06:46;;;;;;;;;;;3.60;86.70;;;;;;5003585;28;19917;-69
2022/01/20 14:09:12;;;;;;;;;;;3.70;86.60;;;;;;5003260;28;19909;-69
2022/01/20 14:11:39;;;;;;;;;;;3.80;88.70;;;;;;5003663;28;19955;-69
2022/01/20 14:14:08;;;;;;;;;;;3.60;88.70;;;;;;5002784;28;20030;-68
2022/01/20 14:16:34;;;;;;;;;;;3.50;89.20;;;;;;5002465;28;19910;-69
2022/01/20 14:18:59;;;;;;;;;;;3.40;88.90;;;;;;5003338;28;19952;-69
2022/01/20 14:21:25;;;;;;;;;;;3.30;90.00;;;;;;5003647;28;19917;-69
2022/01/20 14:23:51;;;;;;;;;;;3.20;90.40;;;;;;5003451;28;19913;-69
2022/01/20 14:26:23;;;;;;;;;;;3.20;90.50;;;;;;5002993;28;19918;-69
2022/01/20 14:28:49;;;;;;;;;;;3.10;90.60;;;;;;5003823;28;19916;-69
2022/01/20 14:31:15;;;;;;;;;;;3.10;90.80;;;;;;5003465;28;19949;-69
2022/01/20 14:33:40;;;;;;;;;;;3.10;90.90;;;;;;5002635;28;19909;-69
2022/01/20 14:36:06;;;;;;;;;;;3.30;90.60;;;;;;5002588;28;19914;-68
2022/01/20 14:38:32;;;;;;;;;;;3.40;90.30;;;;;;5049352;23;19921;-63
2022/01/20 14:40:58;;;;;;;;;;;3.40;90.10;;;;;;5034581;28;19920;-65
2022/01/20 14:43:23;;;;;;;;;;;3.40;90.20;;;;;;5042766;28;19963;-65
2022/01/20 14:45:50;;;;;;;;;;;3.40;90.30;;;;;;5042496;28;20200;-65
2022/01/20 14:48:17;;;;;;;;;;;3.40;90.40;;;;;;5036730;28;19945;-64
2022/01/20 14:50:43;;;;;;;;;;;3.30;90.20;;;;;;5022907;28;19916;-64
2022/01/20 14:53:08;;;;;;;;;;;3.10;90.80;;;;;;5022953;28;19976;-65
2022/01/20 14:58:10;;;;;;;;;;;3.10;91.10;;;;;;5198450;23;19928;-65
2022/01/20 15:00:36;;;;;;;;;;;3.00;91.60;;;;;;5047625;28;19952;-66
2022/01/20 15:03:02;;;;;;;;;;;2.90;91.80;;;;;;5042491;28;19917;-65
2022/01/20 15:05:29;;;;;;;;;;;2.70;92.20;;;;;;5061251;28;19909;-65
2022/01/20 15:07:55;;;;;;;;;;;2.60;92.20;;;;;;5061996;28;19908;-65
2022/01/20 15:10:20;;;;;;;;;;;2.60;92.00;;;;;;5062307;28;19947;-65
2022/01/20 15:12:47;;;;;;;;;;;2.50;92.30;;;;;;5061364;28;19920;-65
2022/01/20 15:15:12;;;;;;;;;;;2.60;92.90;;;;;;5062413;28;19916;-65
2022/01/20 15:17:38;;;;;;;;;;;2.70;92.80;;;;;;5060772;28;20146;-65
2022/01/20 15:20:04;;;;;;;;;;;2.70;92.40;;;;;;5064993;28;19937;-66
2022/01/20 15:22:30;;;;;;;;;;;2.50;92.20;;;;;;5066170;28;19909;-64
2022/01/20 15:24:56;;;;;;;;;;;2.40;92.80;;;;;;5066194;28;19970;-64
2022/01/20 15:27:22;;;;;;;;;;;2.40;93.00;;;;;;5065577;28;19909;-64
2022/01/20 15:29:47;;;;;;;;;;;2.20;93.10;;;;;;5048181;28;20202;-64
2022/01/20 15:32:13;;;;;;;;;;;2.10;93.40;;;;;;5065961;28;19971;-65
2022/01/20 15:34:39;;;;;;;;;;;2.10;93.30;;;;;;5047890;28;20115;-65
2022/01/20 15:37:04;;;;;;;;;;;2.00;93.30;;;;;;5065413;28;20207;-66
2022/01/20 15:39:30;;;;;;;;;;;1.90;92.90;;;;;;5065716;28;19913;-66
2022/01/20 15:41:56;;;;;;;;;;;1.90;92.90;;;;;;5065830;28;19909;-65
2022/01/20 15:44:22;;;;;;;;;;;1.90;93.00;;;;;;5066057;28;19975;-66
2022/01/20 15:46:48;;;;;;;;;;;1.80;93.10;;;;;;5065381;28;19944;-65